Time;durP1;ratioP1;P1;durP2;ratioP2;P2;SDS_P1;SDS_P2;PMS_P1;PMS_P2;Temp;Humidity;BMP_temperature;BMP_pressure;BME280_temperature;BME280_humidity;BME280_pressure;Samples;Min_cycle;Max_cycle;Signal;HPM_P1;HPM_P2
2021/05/27 00:01:37;;;;;;;;;;;;;;;24.48;49.27;100816.87;1664886;86;20677;-79
2021/05/27 00:04:04;;;;;;;;;;;;;;;24.49;49.32;100824.00;1664830;86;20168;-81
2021/05/27 00:06:30;;;;;;;;;;;;;;;24.48;49.37;100818.75;1664901;86;20221;-81
2021/05/27 00:08:56;;;;;;;;;;;;;;;24.46;49.38;100816.27;1646851;85;20295;-81
2021/05/27 00:11:22;;;;;;;;;;;;;;;24.46;49.32;100816.80;1638298;85;20188;-79
2021/05/27 00:13:51;;;;;;;;;;;;;;;24.45;49.30;100816.52;1681997;85;20327;-79
2021/05/27 00:16:18;;;;;;;;;;;;;;;24.42;49.27;100817.81;1681529;85;20301;-79
2021/05/27 00:18:51;;;;;;;;;;;;;;;24.40;49.14;100815.87;1680589;85;20296;-80
2021/05/27 00:21:13;;;;;;;;;;;;;;;24.37;48.96;100815.51;1679761;85;20306;-79
2021/05/27 00:23:39;;;;;;;;;;;;;;;24.35;48.94;100812.99;1680746;85;20170;-79
2021/05/27 00:26:05;;;;;;;;;;;;;;;24.34;48.82;100815.95;1680825;85;20242;-79
2021/05/27 00:28:31;;;;;;;;;;;;;;;24.30;48.63;100817.81;1681425;85;20181;-79
2021/05/27 00:30:57;;;;;;;;;;;;;;;24.25;48.61;100806.76;1710069;83;20250;-79
2021/05/27 00:33:23;;;;;;;;;;;;;;;24.24;48.53;100811.91;1708537;83;20144;-79
2021/05/27 00:35:50;;;;;;;;;;;;;;;24.19;48.43;100804.96;1706144;84;20494;-79
2021/05/27 00:38:15;;;;;;;;;;;;;;;24.17;48.34;100809.03;1706015;83;20184;-79
2021/05/27 00:40:42;;;;;;;;;;;;;;;24.11;48.31;100809.42;1705867;83;20549;-79
2021/05/27 00:43:08;;;;;;;;;;;;;;;24.08;48.42;100811.83;1684254;84;20196;-79
2021/05/27 00:45:34;;;;;;;;;;;;;;;24.02;48.42;100809.48;1706013;83;20172;-79
2021/05/27 00:47:59;;;;;;;;;;;;;;;23.96;48.45;100813.19;1707612;83;20177;-79
2021/05/27 00:50:25;;;;;;;;;;;;;;;23.93;48.71;100817.76;1706057;84;20141;-79
2021/05/27 00:52:54;;;;;;;;;;;;;;;23.91;48.79;100819.38;1706136;83;20165;-79
2021/05/27 00:55:22;;;;;;;;;;;;;;;23.90;48.69;100821.82;1706217;83;20221;-79
2021/05/27 00:57:48;;;;;;;;;;;;;;;23.90;48.66;100818.25;1705817;83;20136;-79
2021/05/27 01:00:17;;;;;;;;;;;;;;;23.89;48.70;100822.03;1706115;83;20577;-79
2021/05/27 01:02:43;;;;;;;;;;;;;;;23.87;48.69;100826.39;1692712;83;20211;-79
2021/05/27 01:05:12;;;;;;;;;;;;;;;23.85;48.67;100830.45;1682362;85;20205;-80
2021/05/27 01:07:38;;;;;;;;;;;;;;;23.83;48.65;100822.99;1682164;85;20262;-80
2021/05/27 01:10:06;;;;;;;;;;;;;;;23.81;48.62;100824.61;1682212;85;20262;-80
2021/05/27 01:12:32;;;;;;;;;;;;;;;23.78;48.63;100827.27;1682213;84;20205;-79
2021/05/27 01:17:50;;;;;;;;;;;;;;;23.74;48.62;100825.24;1681023;85;20296;-80
2021/05/27 01:20:21;;;;;;;;;;;;;;;23.71;48.60;100822.47;1680686;85;20301;-80
2021/05/27 01:22:47;;;;;;;;;;;;;;;23.71;48.54;100822.97;1680932;85;20333;-80
2021/05/27 01:25:14;;;;;;;;;;;;;;;23.70;48.53;100815.30;1680867;85;20902;-80
2021/05/27 01:27:40;;;;;;;;;;;;;;;23.69;48.46;100823.22;1681452;85;20301;-80
2021/05/27 01:30:08;;;;;;;;;;;;;;;23.71;48.30;100818.87;1681277;85;20428;-80
2021/05/27 01:32:35;;;;;;;;;;;;;;;23.68;48.14;100816.09;1679122;85;20255;-81
2021/05/27 01:35:02;;;;;;;;;;;;;;;23.65;47.97;100811.08;1680420;84;20150;-81
2021/05/27 01:37:30;;;;;;;;;;;;;;;23.64;47.79;100815.39;1679320;85;20235;-81
2021/05/27 01:39:57;;;;;;;;;;;;;;;23.61;47.66;100813.95;1673991;85;20238;-81
2021/05/27 01:42:25;;;;;;;;;;;;;;;23.59;47.83;100813.37;1681714;84;20235;-80
2021/05/27 01:44:51;;;;;;;;;;;;;;;23.58;47.88;100810.34;1655440;85;20226;-81
2021/05/27 01:47:17;;;;;;;;;;;;;;;23.55;47.92;100813.00;1643798;85;20274;-80
2021/05/27 01:49:43;;;;;;;;;;;;;;;23.53;47.91;100806.95;1641751;87;20587;-80
2021/05/27 01:52:09;;;;;;;;;;;;;;;23.52;47.84;100808.53;1643877;86;20184;-80
2021/05/27 01:54:39;;;;;;;;;;;;;;;23.50;47.86;100806.05;1682158;85;20189;-79
2021/05/27 01:57:06;;;;;;;;;;;;;;;23.48;47.88;100801.86;1682133;85;20273;-79
2021/05/27 01:59:32;;;;;;;;;;;;;;;23.46;47.91;100799.91;1682085;85;20250;-80
2021/05/27 02:01:59;;;;;;;;;;;;;;;23.45;47.90;100801.81;1682130;85;20201;-80
2021/05/27 02:04:25;;;;;;;;;;;;;;;23.44;47.89;100802.06;1682218;85;20646;-80
2021/05/27 02:06:51;;;;;;;;;;;;;;;23.44;47.91;100800.69;1682286;85;20190;-80
2021/05/27 02:09:18;;;;;;;;;;;;;;;23.45;47.93;100802.35;1683245;85;20202;-80
2021/05/27 02:11:48;;;;;;;;;;;;;;;23.44;48.04;100797.95;1682558;85;20190;-79
2021/05/27 02:14:19;;;;;;;;;;;;;;;23.44;48.05;100800.69;1683513;85;20221;-80
2021/05/27 02:16:45;;;;;;;;;;;;;;;23.44;48.05;100802.06;1683446;85;20226;-81
2021/05/27 02:19:12;;;;;;;;;;;;;;;23.42;48.08;100800.91;1682385;85;20206;-81
2021/05/27 02:21:40;;;;;;;;;;;;;;;23.34;48.32;100801.23;1682047;85;20926;-79
2021/05/27 02:24:09;;;;;;;;;;;;;;;23.39;48.21;100806.00;1681783;85;20606;-80
2021/05/27 02:26:37;;;;;;;;;;;;;;;23.38;48.21;100803.81;1682042;85;20225;-80
2021/05/27 02:29:05;;;;;;;;;;;;;;;23.35;48.32;100793.90;1682531;85;20225;-79
2021/05/27 02:31:35;;;;;;;;;;;;;;;23.27;48.36;100795.89;1683468;85;20553;-81
2021/05/27 02:34:02;;;;;;;;;;;;;;;23.26;48.40;100794.23;1682330;85;20298;-81
2021/05/27 02:36:29;;;;;;;;;;;;;;;23.27;48.74;100795.89;1682062;85;20262;-80
2021/05/27 02:38:56;;;;;;;;;;;;;;;23.24;48.98;100796.34;1682000;85;20193;-79
2021/05/27 02:41:22;;;;;;;;;;;;;;;23.24;49.08;100796.34;1681912;85;20186;-81
2021/05/27 02:43:50;;;;;;;;;;;;;;;23.25;49.11;100791.17;1682135;85;20205;-81
2021/05/27 02:46:17;;;;;;;;;;;;;;;23.27;49.24;100792.33;1682227;85;20566;-81
2021/05/27 02:48:45;;;;;;;;;;;;;;;23.26;49.09;100790.66;1681561;85;20246;-82
2021/05/27 02:51:11;;;;;;;;;;;;;;;23.27;49.16;100790.42;1682104;85;20229;-82
2021/05/27 02:53:38;;;;;;;;;;;;;;;23.28;49.05;100792.08;1682614;85;20531;-81
2021/05/27 02:56:04;;;;;;;;;;;;;;;23.29;49.23;100791.01;1683550;85;20300;-81
2021/05/27 02:58:32;;;;;;;;;;;;;;;23.33;49.27;100794.11;1666493;84;20229;-81
2021/05/27 03:00:58;;;;;;;;;;;;;;;23.37;49.25;100787.65;1650452;87;20225;-81
2021/05/27 03:03:26;;;;;;;;;;;;;;;23.39;49.29;100786.87;1650480;86;20260;-80
2021/05/27 03:05:54;;;;;;;;;;;;;;;23.42;49.15;100789.97;1649993;86;20252;-80
2021/05/27 03:08:21;;;;;;;;;;;;;;;23.44;49.43;100789.76;1649444;87;20580;-81
2021/05/27 03:10:48;;;;;;;;;;;;;;;23.46;49.32;100798.01;1649996;87;20241;-80
2021/05/27 03:13:14;;;;;;;;;;;;;;;23.48;49.44;100797.77;1628502;87;20251;-80
2021/05/27 03:15:41;;;;;;;;;;;;;;;23.49;49.43;100804.92;1650601;86;20269;-81
2021/05/27 03:18:08;;;;;;;;;;;;;;;23.50;49.53;100803.84;1650038;85;20287;-81
2021/05/27 03:20:35;;;;;;;;;;;;;;;23.52;49.44;100803.06;1650397;85;20248;-81
2021/05/27 03:23:03;;;;;;;;;;;;;;;23.53;49.59;100797.38;1666797;84;20265;-81
2021/05/27 03:25:29;;;;;;;;;;;;;;;23.56;49.53;100800.16;1680652;85;20269;-81
2021/05/27 03:27:55;;;;;;;;;;;;;;;23.59;49.48;100799.70;1680838;85;20329;-80
2021/05/27 03:30:25;;;;;;;;;;;;;;;23.61;49.16;100792.61;1680346;85;20287;-80
2021/05/27 03:32:51;;;;;;;;;;;;;;;23.62;49.10;100794.27;1654797;85;20273;-78
2021/05/27 03:35:18;;;;;;;;;;;;;;;23.62;49.17;100789.66;1680918;85;20281;-78
2021/05/27 03:37:46;;;;;;;;;;;;;;;23.64;49.43;100792.16;1680810;85;20309;-79
2021/05/27 03:40:14;;;;;;;;;;;;;;;23.64;49.55;100799.84;1680068;85;20304;-79
2021/05/27 03:42:47;;;;;;;;;;;;;;;23.67;49.61;100799.39;1686743;83;20243;-79
2021/05/27 03:45:18;;;;;;;;;;;;;;;23.68;49.77;100795.58;1706974;83;20213;-80
2021/05/27 03:47:47;;;;;;;;;;;;;;;23.69;49.79;100799.97;1706233;84;20244;-79
2021/05/27 03:50:15;;;;;;;;;;;;;;;23.70;49.75;100802.99;1707087;83;20244;-81
2021/05/27 03:52:41;;;;;;;;;;;;;;;23.73;49.80;100802.53;1707750;83;20265;-81
2021/05/27 03:55:10;;;;;;;;;;;;;;;23.75;49.85;100795.45;1700020;83;20175;-82
2021/05/27 03:57:37;;;;;;;;;;;;;;;23.81;49.86;100796.42;1656034;85;20223;-80
2021/05/27 04:02:51;;;;;;;;;;;;;;;23.83;49.68;100794.27;1657354;86;20188;-80
2021/05/27 04:08:08;;;;;;;;;;;;;;;23.89;49.54;100802.88;1637698;85;20217;-80
2021/05/27 04:10:34;;;;;;;;;;;;;;;23.91;49.48;100796.66;1624120;85;20442;-80
2021/05/27 04:13:00;;;;;;;;;;;;;;;23.95;49.43;100800.59;1630936;84;20284;-80
2021/05/27 04:15:28;;;;;;;;;;;;;;;23.98;49.54;100799.58;1638103;84;20245;-80
2021/05/27 04:18:01;;;;;;;;;;;;;;;24.03;49.43;100802.97;1638294;85;20281;-80
2021/05/27 04:20:30;;;;;;;;;;;;;;;24.08;49.20;100800.88;1637000;87;20281;-80
2021/05/27 04:22:56;;;;;;;;;;;;;;;24.12;48.85;100795.20;1665199;84;20283;-80
2021/05/27 04:25:24;;;;;;;;;;;;;;;24.16;48.53;100789.55;1680552;85;20266;-80
2021/05/27 04:27:50;;;;;;;;;;;;;;;24.18;48.40;100792.89;1703456;84;20306;-80
2021/05/27 04:30:19;;;;;;;;;;;;;;;24.18;48.59;100790.16;1678353;85;20287;-80
2021/05/27 04:32:58;;;;;;;;;;;;;;;24.22;48.46;100789.44;1678398;84;20287;-80
2021/05/27 04:35:38;;;;;;;;;;;;;;;24.27;48.20;100788.17;1695376;82;20348;-80
2021/05/27 04:38:11;;;;;;;;;;;;;;;24.33;48.17;100787.74;1702821;82;20310;-81
2021/05/27 04:40:39;;;;;;;;;;;;;;;24.43;48.18;100785.78;1717262;82;20253;-81
2021/05/27 04:43:07;;;;;;;;;;;;;;;24.47;47.75;100783.69;1708065;82;20221;-81
2021/05/27 04:45:33;;;;;;;;;;;;;;;24.53;47.36;100791.50;1697385;84;20591;-81
2021/05/27 04:48:04;;;;;;;;;;;;;;;24.61;46.80;100789.72;1711690;82;20625;-81
2021/05/27 04:50:29;;;;;;;;;;;;;;;24.69;46.48;100785.77;1709614;84;20209;-81
2021/05/27 04:52:55;;;;;;;;;;;;;;;24.77;46.29;100784.02;1708954;82;20292;-82
2021/05/27 04:55:21;;;;;;;;;;;;;;;24.83;46.14;100787.14;1706402;83;20339;-81
2021/05/27 04:57:47;;;;;;;;;;;;;;;24.87;46.04;100786.95;1707362;84;20334;-80
2021/05/27 05:00:18;;;;;;;;;;;;;;;24.92;45.98;100786.22;1705949;84;20354;-81
2021/05/27 05:02:44;;;;;;;;;;;;;;;24.94;45.86;100778.60;1707608;82;20264;-80
2021/05/27 05:05:12;;;;;;;;;;;;;;;24.95;45.90;100782.45;1669749;84;20271;-81
2021/05/27 05:07:41;;;;;;;;;;;;;;;24.99;45.92;100782.80;1722866;82;20242;-80
2021/05/27 05:10:08;;;;;;;;;;;;;;;25.01;45.75;100789.69;1709416;82;20249;-80
2021/05/27 05:12:44;;;;;;;;;;;;;;;25.04;45.68;100785.64;1709707;82;20202;-79
2021/05/27 05:15:06;;;;;;;;;;;;;;;25.05;45.74;100786.75;1707540;82;20188;-81
2021/05/27 05:17:32;;;;;;;;;;;;;;;25.08;45.83;100784.64;1713794;82;20236;-80
2021/05/27 05:19:59;;;;;;;;;;;;;;;25.11;45.88;100782.22;1703306;82;20235;-81
2021/05/27 05:22:26;;;;;;;;;;;;;;;25.13;45.68;100784.73;1705426;82;20165;-80
2021/05/27 05:24:52;;;;;;;;;;;;;;;25.11;45.43;100784.95;1701960;82;20183;-81
2021/05/27 05:27:18;;;;;;;;;;;;;;;25.11;45.45;100790.44;1702383;82;20242;-81
2021/05/27 05:29:44;;;;;;;;;;;;;;;25.09;45.83;100784.39;1693771;82;20200;-81
2021/05/27 05:32:10;;;;;;;;;;;;;;;25.13;45.80;100781.99;1702839;82;20271;-82
2021/05/27 05:34:36;;;;;;;;;;;;;;;25.14;45.83;100781.73;1703334;82;20254;-82
2021/05/27 05:37:02;;;;;;;;;;;;;;;25.20;45.97;100779.36;1706059;81;20205;-82
2021/05/27 05:39:32;;;;;;;;;;;;;;;25.23;46.14;100777.52;1699165;82;20518;-81
2021/05/27 05:41:59;;;;;;;;;;;;;;;25.28;46.12;100783.08;1682444;82;20251;-81
2021/05/27 05:44:26;;;;;;;;;;;;;;;25.62;45.41;100788.59;1676983;82;20998;-80
2021/05/27 05:46:55;;;;;;;;;;;;;;;25.49;45.50;100791.67;1679259;82;20172;-81
2021/05/27 05:49:23;;;;;;;;;;;;;;;25.43;45.72;100785.78;1685899;83;20237;-81
2021/05/27 05:51:49;;;;;;;;;;;;;;;25.45;45.95;100786.39;1676035;84;20234;-81
2021/05/27 05:54:26;;;;;;;;;;;;;;;25.48;45.90;100782.61;1678397;84;20297;-81
2021/05/27 05:56:49;;;;;;;;;;;;;;;25.53;46.09;100788.17;1677008;84;20559;-80
2021/05/27 05:59:15;;;;;;;;;;;;;;;25.58;45.92;100784.69;1669020;83;20407;-81
2021/05/27 06:01:42;;;;;;;;;;;;;;;25.65;46.01;100788.08;1672493;83;20248;-81
2021/05/27 06:04:09;;;;;;;;;;;;;;;25.71;46.21;100782.98;1640432;82;20292;-80
2021/05/27 06:06:39;;;;;;;;;;;;;;;25.80;46.17;100784.25;1676478;83;20269;-81
2021/05/27 06:09:20;;;;;;;;;;;;;;;25.89;46.08;100778.31;1676702;83;20277;-81
2021/05/27 06:11:46;;;;;;;;;;;;;;;25.92;45.81;100780.56;1683226;82;20269;-81
2021/05/27 06:14:12;;;;;;;;;;;;;;;25.93;45.58;100778.92;1652870;84;20322;-83
2021/05/27 06:16:42;;;;;;;;;;;;;;;25.93;45.44;100781.67;1691103;83;20314;-83
2021/05/27 06:19:09;;;;;;;;;;;;;;;25.97;45.62;100774.59;1678837;83;20508;-81
2021/05/27 06:21:45;;;;;;;;;;;;;;;26.08;45.92;100777.52;1683328;83;20329;-81
2021/05/27 06:24:16;;;;;;;;;;;;;;;26.21;45.79;100775.23;1676156;83;20330;-81
2021/05/27 06:26:42;;;;;;;;;;;;;;;26.39;45.75;100764.48;1674901;83;20311;-81
2021/05/27 06:29:08;;;;;;;;;;;;;;;26.58;45.18;100764.17;1647540;84;20269;-81
2021/05/27 06:31:35;;;;;;;;;;;;;;;26.76;45.25;100761.91;1670242;83;21213;-81
2021/05/27 06:34:03;;;;;;;;;;;;;;;26.96;45.06;100751.66;1672180;85;20281;-81
2021/05/27 06:36:37;;;;;;;;;;;;;;;27.16;44.49;100754.34;1661344;85;20259;-82
2021/05/27 06:39:06;;;;;;;;;;;;;;;27.33;44.08;100752.30;1658799;83;20336;-82
2021/05/27 06:41:33;;;;;;;;;;;;;;;27.51;43.55;100760.70;1671878;83;20257;-82
2021/05/27 06:43:59;;;;;;;;;;;;;;;27.67;43.62;100754.23;1681995;83;20242;-83
2021/05/27 06:46:30;;;;;;;;;;;;;;;27.84;43.20;100760.14;1655987;85;20313;-82
2021/05/27 06:48:57;;;;;;;;;;;;;;;28.02;42.76;100756.94;1671600;83;20307;-81
2021/05/27 06:51:23;;;;;;;;;;;;;;;28.18;42.38;100754.56;1670814;83;20348;-82
2021/05/27 06:53:51;;;;;;;;;;;;;;;28.33;42.03;100754.62;1656190;84;20332;-80
2021/05/27 06:56:24;;;;;;;;;;;;;;;28.51;41.92;100759.41;1681445;83;20300;-80
2021/05/27 06:58:48;;;;;;;;;;;;;;;28.66;41.50;100755.34;1679242;83;20258;-81
2021/05/27 07:01:14;;;;;;;;;;;;;;;28.83;41.24;100752.33;1678136;82;20306;-81
2021/05/27 07:03:43;;;;;;;;;;;;;;;29.02;40.87;100755.42;1675461;83;21412;-80
2021/05/27 07:06:16;;;;;;;;;;;;;;;29.17;40.65;100754.08;1669890;82;20241;-81
2021/05/27 07:08:42;;;;;;;;;;;;;;;29.33;40.54;100752.96;1626564;84;20289;-81
2021/05/27 07:11:08;;;;;;;;;;;;;;;29.49;40.18;100754.36;1636401;84;20231;-82
2021/05/27 07:13:34;;;;;;;;;;;;;;;29.61;40.32;100748.01;1622432;84;20277;-81
2021/05/27 07:16:00;;;;;;;;;;;;;;;29.73;40.07;100748.55;1647099;84;20313;-80
2021/05/27 07:18:26;;;;;;;;;;;;;;;29.83;39.88;100755.43;1640215;84;20246;-80
2021/05/27 07:20:54;;;;;;;;;;;;;;;29.91;39.15;100755.98;1642401;84;20573;-81
2021/05/27 07:23:21;;;;;;;;;;;;;;;29.90;39.01;100752.95;1642758;84;20244;-81
2021/05/27 07:25:47;;;;;;;;;;;;;;;29.91;39.31;100743.55;1647485;84;20246;-81
2021/05/27 07:28:15;;;;;;;;;;;;;;;29.97;39.82;100750.15;1641811;84;20227;-81
2021/05/27 07:30:41;;;;;;;;;;;;;;;30.04;39.51;100744.34;1641144;84;20248;-82
2021/05/27 07:33:07;;;;;;;;;;;;;;;30.11;39.23;100744.03;1645585;84;20228;-82
2021/05/27 07:35:35;;;;;;;;;;;;;;;30.15;38.88;100743.22;1640424;84;20212;-81
2021/05/27 07:38:05;;;;;;;;;;;;;;;30.56;38.32;100738.89;1640153;84;20279;-84
2021/05/27 07:40:33;;;;;;;;;;;;;;;30.32;38.57;100741.50;1643665;84;20240;-82
2021/05/27 07:43:01;;;;;;;;;;;;;;;30.26;38.79;100731.03;1648371;84;20256;-81
2021/05/27 07:45:27;;;;;;;;;;;;;;;30.26;38.95;100729.66;1643297;84;20311;-80
2021/05/27 07:47:56;;;;;;;;;;;;;;;30.29;39.09;100730.45;1643268;84;20307;-81
2021/05/27 07:50:22;;;;;;;;;;;;;;;30.33;38.92;100731.54;1645123;84;20248;-81
2021/05/27 07:52:49;;;;;;;;;;;;;;;30.37;38.88;100726.28;1642800;84;20295;-81
2021/05/27 07:55:15;;;;;;;;;;;;;;;30.40;38.79;100720.19;1642262;85;20633;-80
2021/05/27 07:57:42;;;;;;;;;;;;;;;30.43;38.79;100727.92;1643481;84;20374;-81
2021/05/27 08:00:10;;;;;;;;;;;;;;;30.46;38.73;100725.13;1642523;85;20258;-81
2021/05/27 08:02:39;;;;;;;;;;;;;;;30.46;38.48;100725.13;1638290;85;20248;-82
2021/05/27 08:05:05;;;;;;;;;;;;;;;30.74;38.00;100725.00;1662192;83;20228;-81
2021/05/27 08:07:31;;;;;;;;;;;;;;;30.79;38.09;100724.95;1667890;82;20777;-81
2021/05/27 08:09:58;;;;;;;;;;;;;;;30.56;38.46;100720.92;1676703;82;20191;-80
2021/05/27 08:12:24;;;;;;;;;;;;;;;30.59;38.23;100717.59;1674087;82;20317;-81
2021/05/27 08:14:50;;;;;;;;;;;;;;;30.82;37.70;100715.54;1669764;83;20258;-80
2021/05/27 08:17:17;;;;;;;;;;;;;;;30.64;38.42;100720.89;1668641;83;20717;-82
2021/05/27 08:19:50;;;;;;;;;;;;;;;30.67;38.39;100717.56;1672923;82;20308;-81
2021/05/27 08:22:16;;;;;;;;;;;;;;;30.69;38.12;100720.30;1673461;82;20827;-81
2021/05/27 08:25:00;;;;;;;;;;;;;;;30.71;37.76;100712.59;1674696;82;20370;-80
2021/05/27 08:27:30;;;;;;;;;;;;;;;30.72;37.74;100706.50;1666762;82;20354;-79
2021/05/27 08:30:02;;;;;;;;;;;;;;;30.73;37.83;100705.37;1678635;83;20869;-82
2021/05/27 08:32:29;;;;;;;;;;;;;;;30.71;37.59;100705.67;1660659;83;20329;-80
2021/05/27 08:34:58;;;;;;;;;;;;;;;30.69;37.88;100702.31;1670086;83;20303;-79
2021/05/27 08:37:32;;;;;;;;;;;;;;;30.68;38.19;100704.82;1670440;83;21406;-79
2021/05/27 08:39:58;;;;;;;;;;;;;;;30.66;38.15;100697.91;1642322;84;20248;-79
2021/05/27 08:42:30;;;;;;;;;;;;;;;30.66;38.23;100698.77;1679207;82;20322;-79
2021/05/27 08:45:08;;;;;;;;;;;;;;;30.67;38.12;100699.59;1596820;86;20328;-78
2021/05/27 08:47:33;;;;;;;;;;;;;;;30.61;37.98;100696.00;1603759;86;20279;-78
2021/05/27 08:50:02;;;;;;;;;;;;;;;30.48;38.18;100700.81;1670891;82;20485;-80
2021/05/27 08:52:35;;;;;;;;;;;;;;;30.37;37.92;100699.20;1671291;82;20332;-79
2021/05/27 08:55:01;;;;;;;;;;;;;;;30.29;38.35;100697.28;1651214;83;20335;-79
2021/05/27 08:57:29;;;;;;;;;;;;;;;30.24;38.35;100697.87;1669963;82;20344;-80
2021/05/27 08:59:57;;;;;;;;;;;;;;;30.17;38.73;100695.98;1673355;82;20342;-80
2021/05/27 09:02:23;;;;;;;;;;;;;;;30.10;38.92;100696.25;1675011;82;20288;-79
2021/05/27 09:04:49;;;;;;;;;;;;;;;29.98;39.41;100700.73;1672700;82;20248;-78
2021/05/27 09:07:16;;;;;;;;;;;;;;;29.87;39.36;100703.23;1674899;82;20296;-81
2021/05/27 09:09:58;;;;;;;;;;;;;;;29.76;39.80;100706.59;1671162;84;20709;-80
2021/05/27 09:12:31;;;;;;;;;;;;;;;29.64;40.32;100710.20;1675549;82;20343;-80
2021/05/27 09:14:58;;;;;;;;;;;;;;;29.51;40.75;100707.97;1676259;83;20345;-79
2021/05/27 09:17:26;;;;;;;;;;;;;;;29.41;40.98;100700.54;1670524;82;20282;-79
2021/05/27 09:20:17;;;;;;;;;;;;;;;29.37;40.84;100707.72;1678029;83;20234;-79
2021/05/27 09:22:45;;;;;;;;;;;;;;;29.29;40.53;100709.09;1673697;82;20665;-80
2021/05/27 09:25:24;;;;;;;;;;;;;;;29.25;40.76;100701.13;1662173;82;20423;-80
2021/05/27 09:27:50;;;;;;;;;;;;;;;29.26;40.56;100699.19;1615572;86;20238;-79
2021/05/27 09:30:26;;;;;;;;;;;;;;;29.27;40.70;100701.66;1622506;86;20196;-81
2021/05/27 09:32:53;;;;;;;;;;;;;;;29.26;40.48;100700.01;1630740;86;20319;-80
2021/05/27 09:35:21;;;;;;;;;;;;;;;29.29;39.71;100699.98;1597060;87;20277;-81
2021/05/27 09:37:49;;;;;;;;;;;;;;;29.24;39.40;100700.81;1657909;82;20322;-80
2021/05/27 09:40:43;;;;;;;;;;;;;;;29.19;39.93;100700.00;1664192;83;20320;-80
2021/05/27 09:43:12;;;;;;;;;;;;;;;29.12;41.41;100696.16;1656706;83;20336;-80
2021/05/27 09:45:39;;;;;;;;;;;;;;;29.09;41.81;100691.18;1646996;84;20238;-80
2021/05/27 09:48:49;;;;;;;;;;;;;;;29.05;42.12;100690.07;1623937;86;20264;-79
2021/05/27 09:51:37;;;;;;;;;;;;;;;29.01;42.31;100690.34;1616651;86;20262;-80
2021/05/27 09:54:16;;;;;;;;;;;;;;;28.91;42.14;100690.31;1677406;83;20275;-79
2021/05/27 09:56:54;;;;;;;;;;;;;;;28.89;41.61;100684.23;1657253;83;20358;-79
2021/05/27 09:59:20;;;;;;;;;;;;;;;28.79;41.90;100688.63;1674770;83;20212;-80
2021/05/27 10:02:13;;;;;;;;;;;;;;;28.75;42.22;100679.80;1678209;83;20170;-79
2021/05/27 10:05:01;;;;;;;;;;;;;;;28.72;42.33;100675.68;1662901;84;20250;-80
2021/05/27 10:07:49;;;;;;;;;;;;;;;28.70;42.18;100676.48;1679648;83;20219;-81
2021/05/27 10:10:23;;;;;;;;;;;;;;;28.69;42.18;100677.59;1677266;82;20297;-80
2021/05/27 10:12:59;;;;;;;;;;;;;;;28.69;42.30;100683.66;1677553;83;21060;-80
2021/05/27 10:15:26;;;;;;;;;;;;;;;28.67;42.19;100679.81;1659305;83;20324;-79
2021/05/27 10:18:00;;;;;;;;;;;;;;;28.63;42.28;100680.63;1681888;81;20232;-81
2021/05/27 10:20:25;;;;;;;;;;;;;;;28.60;42.01;100679.23;1673571;83;20229;-81
2021/05/27 10:23:05;;;;;;;;;;;;;;;28.56;42.49;100681.70;1658667;82;20278;-81
2021/05/27 10:25:29;;;;;;;;;;;;;;;28.51;43.11;100678.11;1675070;82;20272;-82
2021/05/27 10:28:01;;;;;;;;;;;;;;;28.49;42.85;100672.06;1670768;83;20598;-82
2021/05/27 10:30:28;;;;;;;;;;;;;;;28.49;41.93;100666.00;1678752;82;20309;-80
2021/05/27 10:32:58;;;;;;;;;;;;;;;28.50;40.67;100671.78;1681239;82;20466;-79
2021/05/27 10:35:55;;;;;;;;;;;;;;;28.47;40.57;100669.56;1647320;84;20293;-79
2021/05/27 10:38:41;;;;;;;;;;;;;;;28.47;40.90;100672.86;1666992;84;20305;-80
2021/05/27 10:41:25;;;;;;;;;;;;;;;28.47;41.88;100664.05;1670458;83;20344;-81
2021/05/27 10:44:03;;;;;;;;;;;;;;;28.46;42.72;100654.13;1671767;83;20324;-79
2021/05/27 10:46:31;;;;;;;;;;;;;;;28.45;43.27;100648.91;1679400;83;20293;-80
2021/05/27 10:48:57;;;;;;;;;;;;;;;28.44;43.03;100652.77;1677596;82;20210;-77
2021/05/27 10:51:43;;;;;;;;;;;;;;;28.44;43.38;100650.01;1672671;83;20355;-78
2021/05/27 10:54:06;;;;;;;;;;;;;;;28.40;42.51;100642.83;1678841;82;20209;-80
2021/05/27 10:56:37;;;;;;;;;;;;;;;28.39;42.93;100648.07;1677548;82;20280;-80
2021/05/27 10:59:28;;;;;;;;;;;;;;;28.41;42.40;100640.91;1658815;85;20313;-79
2021/05/27 11:01:56;;;;;;;;;;;;;;;28.43;42.79;100646.40;1671236;83;20322;-80
2021/05/27 11:04:35;;;;;;;;;;;;;;;28.46;42.43;100645.04;1673054;83;20296;-79
2021/05/27 11:07:19;;;;;;;;;;;;;;;28.46;42.07;100647.80;1672879;83;20312;-79
2021/05/27 11:09:48;;;;;;;;;;;;;;;28.43;41.67;100637.31;1674350;84;20313;-81
2021/05/27 11:12:29;;;;;;;;;;;;;;;28.40;41.99;100636.50;1655465;83;20273;-81
2021/05/27 11:15:02;;;;;;;;;;;;;;;28.38;41.98;100640.05;1676019;82;20213;-77
2021/05/27 11:17:30;;;;;;;;;;;;;;;28.33;41.95;100637.53;1680423;82;20281;-77
2021/05/27 11:22:39;;;;;;;;;;;;;;;28.27;42.04;100626.23;1676239;84;20799;-78
2021/05/27 11:25:12;;;;;;;;;;;;;;;28.27;42.03;100631.74;1679127;83;20528;-78
2021/05/27 11:27:59;;;;;;;;;;;;;;;28.25;41.97;100622.08;1678882;82;20210;-79
2021/05/27 11:30:30;;;;;;;;;;;;;;;28.23;42.07;100616.86;1680575;83;20208;-78
2021/05/27 11:33:09;;;;;;;;;;;;;;;28.22;42.26;100614.38;1679047;83;20310;-77
2021/05/27 11:35:41;;;;;;;;;;;;;;;28.21;42.20;100608.61;1660286;83;20277;-77
2021/05/27 11:38:11;;;;;;;;;;;;;;;28.20;41.99;100603.62;1676530;84;20870;-79
2021/05/27 11:40:43;;;;;;;;;;;;;;;28.20;41.93;100609.13;1673710;83;20622;-80
2021/05/27 11:43:11;;;;;;;;;;;;;;;28.20;41.81;100611.88;1677440;83;20314;-80
2021/05/27 11:45:47;;;;;;;;;;;;;;;28.19;41.31;100608.86;1678195;83;20221;-80
2021/05/27 11:50:46;;;;;;;;;;;;;;;28.17;40.97;100616.58;1671088;83;20697;-76
2021/05/27 11:53:13;;;;;;;;;;;;;;;28.16;41.18;100610.80;1676149;83;20262;-79
2021/05/27 11:55:39;;;;;;;;;;;;;;;28.14;41.52;100610.22;1615370;85;20228;-81
2021/05/27 11:58:07;;;;;;;;;;;;;;;28.12;41.22;100605.55;1648635;84;20611;-79
2021/05/27 12:00:34;;;;;;;;;;;;;;;28.10;41.53;100612.41;1644296;85;20390;-78
2021/05/27 12:03:03;;;;;;;;;;;;;;;28.08;41.76;100611.88;1618895;85;20235;-79
2021/05/27 12:05:33;;;;;;;;;;;;;;;28.07;41.91;100619.30;1609242;87;20254;-82
2021/05/27 12:08:15;;;;;;;;;;;;;;;28.06;42.05;100624.51;1638605;85;20267;-77
2021/05/27 12:10:50;;;;;;;;;;;;;;;28.06;41.95;100617.63;1649761;85;20426;-80
2021/05/27 12:13:23;;;;;;;;;;;;;;;28.05;41.90;100619.55;1669180;84;20320;-80
2021/05/27 12:15:51;;;;;;;;;;;;;;;28.05;42.05;100621.48;1680484;83;20309;-79
2021/05/27 12:18:18;;;;;;;;;;;;;;;28.03;42.11;100613.50;1660827;83;20270;-79
2021/05/27 12:20:48;;;;;;;;;;;;;;;28.02;42.57;100613.75;1671851;83;20362;-79
2021/05/27 12:23:17;;;;;;;;;;;;;;;28.00;43.24;100614.03;1674106;83;20238;-79
2021/05/27 12:25:51;;;;;;;;;;;;;;;28.00;43.92;100611.84;1670727;83;20253;-82
2021/05/27 12:28:19;;;;;;;;;;;;;;;27.98;44.81;100602.48;1664048;83;20266;-82
2021/05/27 12:30:50;;;;;;;;;;;;;;;27.95;45.71;100598.05;1658249;84;20699;-81
2021/05/27 12:33:23;;;;;;;;;;;;;;;27.93;46.39;100601.61;1674845;83;20265;-82
2021/05/27 12:35:51;;;;;;;;;;;;;;;27.89;46.34;100588.95;1675725;83;20270;-81
2021/05/27 12:38:23;;;;;;;;;;;;;;;27.89;46.50;100577.09;1672112;83;20280;-83
2021/05/27 12:40:52;;;;;;;;;;;;;;;27.87;46.15;100565.53;1672441;83;20300;-80
2021/05/27 12:43:33;;;;;;;;;;;;;;;27.85;45.94;100564.99;1669036;83;20373;-80
2021/05/27 12:46:05;;;;;;;;;;;;;;;27.84;45.80;100562.76;1678965;82;20297;-80
2021/05/27 12:48:32;;;;;;;;;;;;;;;27.86;45.71;100568.02;1681179;82;20309;-80
2021/05/27 12:51:03;;;;;;;;;;;;;;;27.88;45.93;100561.68;1672595;82;20301;-79
2021/05/27 12:53:48;;;;;;;;;;;;;;;27.89;46.29;100559.20;1668509;84;20293;-79
2021/05/27 12:56:22;;;;;;;;;;;;;;;27.90;46.62;100557.57;1680130;82;20320;-81
2021/05/27 12:58:53;;;;;;;;;;;;;;;27.89;46.41;100552.31;1632275;84;20313;-80
2021/05/27 13:01:34;;;;;;;;;;;;;;;27.88;46.61;100557.55;1684836;82;20327;-80